Time;durP1;ratioP1;P1;durP2;ratioP2;P2;SDS_P1;SDS_P2;PMS_P1;PMS_P2;Temp;Humidity;BMP_temperature;BMP_pressure;BME280_temperature;BME280_humidity;BME280_pressure;Samples;Min_cycle;Max_cycle;Signal;HPM_P1;HPM_P2
2022/12/24 00:00:34;;;;;;;18.83;3.63;;;;;;;10.88;78.59;100526.03;4836009;29;20058;-94
2022/12/24 00:03:01;;;;;;;24.20;4.80;;;;;;;10.84;78.47;100533.25;4845922;29;20446;-95
2022/12/24 00:05:28;;;;;;;24.38;4.90;;;;;;;10.89;78.60;100556.84;4829976;29;20138;-95
2022/12/24 00:08:11;;;;;;;24.65;4.22;;;;;;;10.81;78.76;100536.03;4847275;29;20030;-95
2022/12/24 00:10:38;;;;;;;26.67;5.45;;;;;;;10.66;79.07;100537.59;4853002;29;20041;-95
2022/12/24 00:13:05;;;;;;;30.85;6.43;;;;;;;10.73;79.15;100554.06;4843662;29;20041;-95
2022/12/24 00:15:32;;;;;;;34.10;6.13;;;;;;;10.71;79.14;100559.38;4829293;29;20479;-95
2022/12/24 00:17:57;;;;;;;26.25;5.28;;;;;;;10.76;79.55;100566.25;4830983;29;20046;-94
2022/12/24 00:20:23;;;;;;;24.90;5.97;;;;;;;10.79;79.17;100563.50;4836745;29;20027;-94
2022/12/24 00:22:49;;;;;;;26.75;5.85;;;;;;;10.70;79.55;100559.47;4835353;29;20046;-96
2022/12/24 00:25:24;;;;;;;32.38;6.07;;;;;;;10.73;79.74;100569.91;4842514;29;20068;-94
2022/12/24 00:27:49;;;;;;;34.22;6.82;;;;;;;10.75;79.51;100575.13;4848769;29;20027;-96
2022/12/24 00:30:15;;;;;;;22.27;4.90;;;;;;;10.83;79.54;100587.09;4832159;29;20068;-95
2022/12/24 00:32:41;;;;;;;25.58;5.38;;;;;;;10.75;79.49;100568.06;4845027;29;20033;-95
2022/12/24 00:35:08;;;;;;;30.40;6.53;;;;;;;10.78;79.57;100589.06;4836432;29;20038;-95
2022/12/24 00:37:33;;;;;;;25.40;5.35;;;;;;;10.75;79.53;100585.72;4848047;29;20038;-95
2022/12/24 00:39:59;;;;;;;25.65;5.72;;;;;;;10.80;79.42;100584.56;4859802;29;20026;-94
2022/12/24 00:42:24;;;;;;;34.05;6.20;;;;;;;10.77;79.63;100599.69;4838852;29;20130;-95
2022/12/24 00:45:00;;;;;;;28.50;6.72;;;;;;;10.77;80.12;100595.31;4838900;29;20516;-95
2022/12/24 00:47:27;;;;;;;31.33;6.13;;;;;;;10.80;79.92;100615.44;4843882;29;20042;-95
2022/12/24 00:49:54;;;;;;;33.53;6.75;;;;;;;10.69;79.82;100613.28;4850472;29;20062;-95
2022/12/24 00:52:19;;;;;;;29.70;6.55;;;;;;;10.64;80.18;100607.34;4853806;29;20029;-95
2022/12/24 00:54:46;;;;;;;27.00;5.82;;;;;;;10.53;79.68;100596.38;4847618;29;20479;-95
2022/12/24 00:57:11;;;;;;;22.33;5.30;;;;;;;10.79;79.59;100629.59;4841038;29;20034;-94
2022/12/24 00:59:38;;;;;;;21.20;5.15;;;;;;;10.78;79.37;100625.25;4850537;29;20394;-96
2022/12/24 01:02:04;;;;;;;20.98;5.90;;;;;;;10.66;79.56;100608.13;4846222;29;20094;-95
2022/12/24 01:07:13;;;;;;;23.15;5.20;;;;;;;10.79;80.11;100645.47;4830358;29;20113;-95
2022/12/24 01:09:40;;;;;;;22.52;6.00;;;;;;;10.65;79.31;100635.50;4839628;29;20029;-94
2022/12/24 01:12:06;;;;;;;24.00;5.40;;;;;;;10.79;79.19;100641.03;4847444;29;20034;-95
2022/12/24 01:14:36;;;;;;;22.08;5.38;;;;;;;10.85;79.45;100646.03;4845272;29;20125;-95
2022/12/24 01:17:01;;;;;;;26.63;5.20;;;;;;;10.76;79.09;100635.00;4848703;29;20073;-95
2022/12/24 01:19:27;;;;;;;25.77;5.30;;;;;;;10.84;79.01;100648.75;4844635;29;20423;-94
2022/12/24 01:22:01;;;;;;;28.55;6.60;;;;;;;10.72;78.83;100636.91;4833439;29;20094;-95
2022/12/24 01:24:26;;;;;;;25.40;6.07;;;;;;;10.62;78.95;100622.41;4841677;29;20373;-95
2022/12/24 01:26:55;;;;;;;29.40;5.85;;;;;;;10.57;79.09;100635.81;4843411;29;20126;-94
2022/12/24 01:29:20;;;;;;;25.17;6.47;;;;;;;10.51;79.27;100635.22;4834262;29;20034;-95
2022/12/24 01:31:45;;;;;;;29.50;6.38;;;;;;;10.54;79.31;100650.94;4840932;29;20036;-95
2022/12/24 01:34:15;;;;;;;23.35;6.38;;;;;;;10.67;79.57;100689.16;4838712;29;20037;-95
2022/12/24 01:37:01;;;;;;;28.08;5.80;;;;;;;10.67;79.97;100687.34;4843131;29;20026;-95
2022/12/24 01:39:27;;;;;;;28.60;6.00;;;;;;;10.50;79.35;100670.53;4840871;29;20034;-95
2022/12/24 01:44:42;;;;;;;23.73;5.38;;;;;;;10.36;79.49;100664.03;4842744;29;20045;-95
2022/12/24 01:47:13;;;;;;;27.10;5.43;;;;;;;10.48;79.46;100704.94;4834599;29;20042;-95
2022/12/24 01:49:46;;;;;;;25.05;5.95;;;;;;;10.41;79.92;100699.06;4836718;29;20030;-95
2022/12/24 01:52:17;;;;;;;24.05;5.95;;;;;;;10.23;80.33;100681.28;4834033;29;20446;-96
2022/12/24 01:54:55;;;;;;;23.48;6.72;;;;;;;10.33;80.17;100695.00;4838541;29;20090;-95
2022/12/24 01:57:28;;;;;;;29.27;5.88;;;;;;;10.22;80.59;100680.44;4840375;29;20510;-94
2022/12/24 01:59:59;;;;;;;21.67;5.95;;;;;;;10.26;80.55;100702.34;4844531;29;20042;-96
2022/12/24 02:02:26;;;;;;;34.20;7.03;;;;;;;10.12;80.83;100665.88;4861542;29;20035;-95
2022/12/24 02:05:23;;;;;;;21.58;5.40;;;;;;;10.15;81.37;100678.09;4844043;29;20030;-96
2022/12/24 02:07:50;;;;;;;28.88;6.95;;;;;;;10.22;80.94;100684.84;4851366;29;20140;-94
2022/12/24 02:10:16;;;;;;;29.80;5.32;;;;;;;10.43;80.81;100706.91;4833127;29;20034;-95
2022/12/24 02:12:44;;;;;;;29.70;5.38;;;;;;;10.27;81.03;100685.56;4837273;29;20047;-95
2022/12/24 02:15:13;;;;;;;22.85;5.20;;;;;;;10.32;81.06;100694.16;4846582;29;20045;-95
2022/12/24 02:18:02;;;;;;;25.05;5.63;;;;;;;10.36;81.04;100686.97;4844951;29;20053;-94
2022/12/24 02:21:06;;;;;;;24.08;5.07;;;;;;;10.46;81.30;100701.50;4845401;29;20061;-95
2022/12/24 02:24:14;;;;;;;34.72;6.57;;;;;;;10.73;81.02;100744.44;4838870;29;20057;-95
2022/12/24 02:27:05;;;;;;;28.52;5.78;;;;;;;10.67;81.15;100721.72;4849598;29;20038;-96
2022/12/24 02:29:58;;;;;;;33.25;6.28;;;;;;;10.73;81.19;100732.06;4854262;29;20035;-95
2022/12/24 02:32:42;;;;;;;34.55;5.50;;;;;;;10.45;82.08;100719.16;4842881;29;20030;-95
2022/12/24 02:35:13;;;;;;;28.05;6.30;;;;;;;10.50;82.02;100710.19;4847830;29;20052;-95
2022/12/24 02:38:01;;;;;;;29.35;4.88;;;;;;;10.59;81.55;100710.66;4850220;29;20033;-94
2022/12/24 02:40:32;;;;;;;28.13;6.32;;;;;;;10.61;81.63;100729.06;4851353;29;20058;-95
2022/12/24 02:43:04;;;;;;;31.95;5.55;;;;;;;10.48;81.55;100702.28;4844487;29;20051;-96
2022/12/24 02:45:32;;;;;;;26.42;5.25;;;;;;;10.63;81.95;100736.03;4847640;29;20029;-94
2022/12/24 02:47:59;;;;;;;28.70;4.53;;;;;;;10.60;81.44;100709.72;4841504;29;20069;-95
2022/12/24 02:50:24;;;;;;;36.38;5.30;;;;;;;10.66;81.23;100727.94;4848480;29;20078;-96
2022/12/24 02:52:50;;;;;;;25.30;4.70;;;;;;;10.62;81.80;100714.94;4855369;29;20086;-95
2022/12/24 02:55:18;;;;;;;36.88;5.32;;;;;;;10.73;81.93;100749.72;4837780;29;20030;-96
2022/12/24 02:57:59;;;;;;;27.63;5.25;;;;;;;10.71;82.66;100752.41;4843821;29;20463;-95
2022/12/24 03:00:29;;;;;;;29.70;5.82;;;;;;;10.67;82.32;100737.59;4830553;29;20030;-94
2022/12/24 03:03:06;;;;;;;22.77;4.53;;;;;;;10.68;82.54;100744.63;4847376;29;20082;-95
2022/12/24 03:05:59;;;;;;;31.02;4.88;;;;;;;10.80;82.43;100747.66;4848825;29;20494;-95
2022/12/24 03:08:38;;;;;;;33.75;5.10;;;;;;;10.55;82.26;100719.63;4825926;29;20042;-95
2022/12/24 03:11:12;;;;;;;30.67;5.25;;;;;;;10.71;82.16;100748.91;4839369;29;20125;-96
2022/12/24 03:13:38;;;;;;;22.25;4.20;;;;;;;10.57;82.47;100741.56;4844896;29;20394;-94
2022/12/24 03:16:07;;;;;;;30.92;4.00;;;;;;;10.53;82.75;100744.38;4839996;29;20117;-96
2022/12/24 03:18:36;;;;;;;25.90;5.60;;;;;;;10.57;82.90;100746.84;4852874;29;20050;-95
2022/12/24 03:21:09;;;;;;;26.88;5.47;;;;;;;10.65;82.77;100757.97;4836367;29;20034;-93
2022/12/24 03:23:34;;;;;;;30.95;5.50;;;;;;;10.60;83.02;100735.28;4843668;29;20026;-95
2022/12/24 03:26:05;;;;;;;27.83;6.25;;;;;;;10.62;82.81;100744.88;4845633;29;20563;-95
2022/12/24 03:28:31;;;;;;;28.63;4.85;;;;;;;10.67;82.62;100747.31;4835254;29;20026;-95
2022/12/24 03:31:08;;;;;;;28.98;5.93;;;;;;;10.67;82.70;100745.53;4848264;29;20037;-95
2022/12/24 03:33:33;;;;;;;25.40;5.20;;;;;;;10.71;82.87;100748.91;4843700;29;20037;-93
2022/12/24 03:36:02;;;;;;;24.77;5.88;;;;;;;10.61;82.96;100734.34;4833440;29;20025;-95
2022/12/24 03:38:28;;;;;;;27.65;5.45;;;;;;;10.80;82.96;100747.66;4839293;29;20021;-95
2022/12/24 03:41:09;;;;;;;22.70;5.07;;;;;;;10.73;82.48;100729.44;4829456;29;20121;-94
2022/12/24 03:43:34;;;;;;;23.73;5.70;;;;;;;10.72;82.68;100743.56;4842070;29;20034;-94
2022/12/24 03:46:06;;;;;;;24.60;5.20;;;;;;;10.89;82.57;100763.13;4835556;29;20508;-93
2022/12/24 03:48:33;;;;;;;25.60;6.07;;;;;;;10.81;82.72;100746.72;4845541;29;20030;-95
2022/12/24 03:50:58;;;;;;;26.77;5.82;;;;;;;10.86;82.96;100763.25;4836134;29;20559;-96
2022/12/24 03:53:25;;;;;;;19.88;5.93;;;;;;;11.04;82.67;100783.63;4840459;29;20038;-95
2022/12/24 03:55:50;;;;;;;31.70;5.47;;;;;;;10.95;82.92;100768.16;4844323;29;20498;-95
2022/12/24 03:58:15;;;;;;;25.50;5.35;;;;;;;11.05;82.99;100787.13;4845514;29;20045;-94
2022/12/24 04:00:41;;;;;;;24.05;4.63;;;;;;;11.02;82.46;100782.00;4846647;29;20041;-94
2022/12/24 04:03:06;;;;;;;24.33;5.50;;;;;;;10.72;82.85;100734.75;4838027;29;20026;-95
2022/12/24 04:05:34;;;;;;;20.63;4.72;;;;;;;10.86;83.08;100747.38;4843823;29;20038;-95
2022/12/24 04:08:00;;;;;;;22.75;4.95;;;;;;;10.88;82.83;100756.13;4836577;29;20034;-95
2022/12/24 04:10:25;;;;;;;25.95;5.85;;;;;;;10.84;83.42;100768.63;4845350;29;20114;-95
2022/12/24 04:12:50;;;;;;;27.40;5.47;;;;;;;10.75;83.69;100749.66;4846733;29;20064;-95
2022/12/24 04:15:16;;;;;;;19.50;4.88;;;;;;;10.88;83.22;100775.50;4845287;29;20038;-95
2022/12/24 04:17:42;;;;;;;25.33;5.05;;;;;;;10.84;83.66;100786.28;4848531;29;20510;-96
2022/12/24 04:20:10;;;;;;;27.48;5.95;;;;;;;10.77;83.71;100785.69;4840015;29;20034;-95
2022/12/24 04:22:35;;;;;;;19.80;4.35;;;;;;;10.69;83.92;100772.78;4833818;29;20034;-96
2022/12/24 04:25:01;;;;;;;25.02;5.07;;;;;;;10.83;83.95;100789.84;4848635;29;20026;-95
2022/12/24 04:27:29;;;;;;;22.95;6.20;;;;;;;10.84;84.19;100802.16;4844617;29;20418;-96
2022/12/24 04:29:55;;;;;;;26.27;5.60;;;;;;;10.72;83.95;100787.63;4845388;29;20029;-95
2022/12/24 04:32:20;;;;;;;28.88;6.65;;;;;;;10.77;84.36;100784.81;4843756;29;20044;-95
2022/12/24 04:34:46;;;;;;;25.10;4.90;;;;;;;10.78;84.26;100795.34;4838365;29;20483;-96
2022/12/24 04:37:11;;;;;;;24.80;5.50;;;;;;;10.66;83.89;100774.69;4842750;29;20118;-95
2022/12/24 04:39:37;;;;;;;25.88;5.88;;;;;;;10.67;83.98;100785.19;4827647;29;20026;-95
2022/12/24 04:42:02;;;;;;;22.30;5.88;;;;;;;10.66;84.52;100791.41;4847702;29;20477;-95
2022/12/24 04:44:28;;;;;;;28.60;5.47;;;;;;;10.66;84.31;100798.47;4828348;29;20022;-95
2022/12/24 04:46:54;;;;;;;30.80;5.32;;;;;;;10.66;84.42;100807.25;4851295;29;20432;-95
2022/12/24 04:49:19;;;;;;;28.63;5.50;;;;;;;10.65;84.33;100796.75;4845902;29;20407;-95
2022/12/24 04:51:45;;;;;;;25.98;5.70;;;;;;;10.60;84.17;100804.88;4837694;29;20030;-95
2022/12/24 04:54:10;;;;;;;22.17;5.00;;;;;;;10.50;84.27;100787.69;4839908;29;20030;-95
2022/12/24 04:56:37;;;;;;;30.13;5.93;;;;;;;10.57;84.64;100807.63;4841942;29;20045;-95
2022/12/24 04:59:02;;;;;;;20.65;5.88;;;;;;;10.50;84.20;100795.63;4841300;29;20425;-95
2022/12/24 05:01:31;;;;;;;25.30;5.50;;;;;;;10.42;84.46;100792.41;4828619;29;20098;-95
2022/12/24 05:03:57;;;;;;;21.45;5.25;;;;;;;10.48;84.46;100810.66;4845904;29;20033;-95
2022/12/24 05:06:27;;;;;;;26.25;5.85;;;;;;;10.57;84.43;100818.22;4846209;29;20068;-95
2022/12/24 05:08:55;;;;;;;26.95;6.03;;;;;;;10.46;84.69;100807.22;4833111;29;20023;-95
2022/12/24 05:11:21;;;;;;;21.52;5.03;;;;;;;10.45;84.58;100794.94;4854191;29;20466;-95
2022/12/24 05:13:46;;;;;;;24.40;4.40;;;;;;;10.44;84.72;100799.38;4856604;29;20107;-96
2022/12/24 05:16:13;;;;;;;26.33;4.18;;;;;;;10.49;84.87;100812.38;4832139;29;20121;-95
2022/12/24 05:18:39;;;;;;;21.92;4.72;;;;;;;10.51;84.75;100804.41;4844109;29;20495;-95
2022/12/24 05:21:09;;;;;;;22.77;4.72;;;;;;;10.59;84.91;100818.19;4834034;29;20057;-96
2022/12/24 05:26:51;;;;;;;19.25;3.95;;;;;;;10.62;84.93;100796.88;4842029;29;20451;-95
2022/12/24 05:29:17;;;;;;;21.38;4.80;;;;;;;10.58;84.79;100804.06;4833560;29;20036;-96
2022/12/24 05:31:44;;;;;;;22.45;5.22;;;;;;;10.48;84.47;100800.09;4844213;29;20025;-95
2022/12/24 05:34:10;;;;;;;25.77;4.35;;;;;;;10.37;84.72;100791.75;4845352;29;20410;-95
2022/12/24 05:36:36;;;;;;;24.40;5.13;;;;;;;10.46;84.63;100801.94;4855283;29;20095;-95
2022/12/24 05:39:02;;;;;;;24.10;4.60;;;;;;;10.28;84.86;100781.53;4837665;29;20022;-95
2022/12/24 05:41:29;;;;;;;19.63;4.93;;;;;;;10.22;85.06;100785.25;4830867;29;20042;-95
2022/12/24 05:43:55;;;;;;;26.83;4.35;;;;;;;10.36;84.94;100804.09;4827509;29;20034;-95
2022/12/24 05:46:25;;;;;;;31.42;5.22;;;;;;;10.18;85.07;100800.34;4837083;29;20035;-94
2022/12/24 05:48:51;;;;;;;26.70;5.53;;;;;;;10.28;84.90;100810.59;4838581;29;20030;-94
2022/12/24 05:51:21;;;;;;;26.40;4.60;;;;;;;10.21;84.69;100802.91;4832371;29;20116;-95
2022/12/24 05:53:48;;;;;;;27.75;7.65;;;;;;;10.37;85.08;100837.53;4825570;29;20030;-95
2022/12/24 05:56:36;;;;;;;22.17;5.35;;;;;;;10.56;84.52;100864.09;4841351;29;20030;-94
2022/12/24 05:59:01;;;;;;;19.63;5.43;;;;;;;10.47;84.77;100856.53;4854932;29;20038;-95
2022/12/24 06:01:27;;;;;;;21.75;5.05;;;;;;;10.43;84.65;100839.91;4844724;29;20033;-96
2022/12/24 06:03:55;;;;;;;25.35;4.97;;;;;;;10.44;84.24;100849.59;4848557;29;20033;-96
2022/12/24 06:06:24;;;;;;;23.48;5.07;;;;;;;10.28;84.65;100829.09;4856084;29;20074;-96
2022/12/24 06:08:51;;;;;;;28.63;5.40;;;;;;;10.39;84.11;100859.44;4834032;29;20195;-95
2022/12/24 06:11:19;;;;;;;20.17;4.38;;;;;;;10.43;84.32;100879.56;4843648;29;20037;-96
2022/12/24 06:13:45;;;;;;;17.40;4.78;;;;;;;10.40;84.25;100871.78;4839557;29;20029;-95
2022/12/24 06:16:14;;;;;;;21.45;5.40;;;;;;;10.23;84.90;100853.88;4845156;29;20083;-95
2022/12/24 06:18:39;;;;;;;20.33;5.07;;;;;;;10.25;84.50;100852.97;4845329;29;20050;-95
2022/12/24 06:21:06;;;;;;;19.85;3.85;;;;;;;10.31;84.57;100866.84;4840249;29;20037;-95
2022/12/24 06:23:34;;;;;;;27.90;5.68;;;;;;;10.30;84.32;100869.53;4833388;29;20026;-95
2022/12/24 06:26:01;;;;;;;20.42;5.90;;;;;;;10.26;83.98;100863.53;4827491;29;20042;-95
2022/12/24 06:28:31;;;;;;;24.98;4.65;;;;;;;10.16;84.37;100848.88;4862011;29;20037;-95
2022/12/24 06:30:57;;;;;;;36.97;7.45;;;;;;;10.20;84.35;100879.53;4854931;29;20034;-95
2022/12/24 06:33:22;;;;;;;27.67;6.70;;;;;;;10.14;83.92;100859.50;4832261;29;20058;-95
2022/12/24 06:35:48;;;;;;;25.73;5.65;;;;;;;10.24;84.04;100881.19;4844171;29;20030;-95
2022/12/24 06:38:14;;;;;;;20.88;5.00;;;;;;;10.11;83.95;100878.13;4852378;29;20364;-95
2022/12/24 06:40:45;;;;;;;30.30;6.10;;;;;;;10.15;84.12;100886.78;4847387;29;20041;-95
2022/12/24 06:43:13;;;;;;;23.05;5.82;;;;;;;10.21;83.53;100907.69;4855440;29;20550;-96
2022/12/24 06:45:39;;;;;;;28.38;6.78;;;;;;;10.00;83.27;100867.09;4853267;29;20033;-95
2022/12/24 06:48:05;;;;;;;22.08;6.40;;;;;;;9.98;83.30;100863.66;4848379;29;20038;-96
2022/12/24 06:50:32;;;;;;;23.13;6.18;;;;;;;10.11;83.38;100903.66;4833778;29;20106;-95
2022/12/24 06:52:58;;;;;;;23.35;5.88;;;;;;;9.94;83.42;100862.91;4831611;29;20034;-94
2022/12/24 06:55:23;;;;;;;21.15;6.53;;;;;;;10.17;83.70;100896.41;4850528;29;20033;-95
2022/12/24 06:57:49;;;;;;;21.65;5.03;;;;;;;9.91;83.34;100863.00;4848029;29;20046;-95
2022/12/24 07:00:18;;;;;;;21.77;6.53;;;;;;;9.95;83.49;100880.47;4852456;29;20062;-95
2022/12/24 07:02:44;;;;;;;21.08;6.20;;;;;;;10.16;83.60;100913.13;4850641;29;20033;-96
2022/12/24 07:05:10;;;;;;;25.55;6.05;;;;;;;10.17;83.19;100916.69;4853477;29;20491;-95
2022/12/24 07:07:42;;;;;;;24.98;6.53;;;;;;;10.19;83.81;100914.81;4858651;29;20051;-96
2022/12/24 07:10:13;;;;;;;22.58;5.95;;;;;;;10.21;83.74;100921.78;4845019;29;20056;-95
2022/12/24 07:12:47;;;;;;;30.10;6.20;;;;;;;10.14;83.68;100906.22;4841172;29;20041;-95
2022/12/24 07:15:14;;;;;;;26.80;6.03;;;;;;;10.10;83.52;100894.88;4861676;29;20032;-96
2022/12/24 07:17:45;;;;;;;34.10;6.32;;;;;;;10.29;83.35;100931.22;4868760;29;20046;-96
2022/12/24 07:20:15;;;;;;;28.30;5.80;;;;;;;9.99;83.12;100897.06;4872359;29;20098;-95
2022/12/24 07:22:44;;;;;;;34.42;6.40;;;;;;;9.95;83.73;100887.53;4831880;29;20041;-95
2022/12/24 07:25:10;;;;;;;28.45;6.18;;;;;;;10.15;83.23;100929.06;4869592;29;20097;-94
2022/12/24 07:27:36;;;;;;;30.30;6.18;;;;;;;10.13;83.37;100933.56;4837569;29;20044;-96
2022/12/24 07:30:03;;;;;;;30.17;5.95;;;;;;;9.84;83.63;100887.06;4856152;29;20058;-96
2022/12/24 07:32:28;;;;;;;28.98;6.13;;;;;;;9.78;83.90;100895.22;4855452;29;20045;-96
2022/12/24 07:34:55;;;;;;;28.50;6.68;;;;;;;9.75;83.80;100906.75;4852944;29;20033;-96
2022/12/24 07:37:21;;;;;;;32.97;5.63;;;;;;;9.75;83.89;100912.03;4854284;29;20035;-95
2022/12/24 07:39:46;;;;;;;38.45;7.18;;;;;;;9.91;84.32;100938.75;4838559;29;20030;-96
2022/12/24 07:42:12;;;;;;;28.27;5.97;;;;;;;9.85;83.84;100933.69;4853040;29;20034;-95
2022/12/24 07:44:53;;;;;;;23.95;5.97;;;;;;;9.83;83.66;100932.88;4856452;29;20101;-95
2022/12/24 07:47:19;;;;;;;33.80;5.78;;;;;;;9.78;83.69;100935.66;4857666;29;20101;-96
2022/12/24 07:49:47;;;;;;;19.95;4.45;;;;;;;9.67;84.43;100917.56;4852735;29;20026;-96
2022/12/24 07:52:12;;;;;;;25.83;6.22;;;;;;;9.69;84.60;100926.28;4864585;29;20046;-95
2022/12/24 07:54:42;;;;;;;25.17;5.65;;;;;;;9.64;84.36;100925.59;4838400;29;20037;-96
2022/12/24 07:57:07;;;;;;;28.65;5.18;;;;;;;9.60;84.33;100931.88;4843747;29;20119;-96
2022/12/24 07:59:34;;;;;;;31.60;6.97;;;;;;;9.66;84.41;100942.25;4844324;29;20026;-96
2022/12/24 08:02:10;;;;;;;28.33;7.25;;;;;;;9.62;84.71;100950.34;4854706;29;20046;-95
2022/12/24 08:04:45;;;;;;;27.00;4.60;;;;;;;9.68;85.20;100953.63;4838485;29;20054;-96
2022/12/24 08:07:12;;;;;;;27.23;5.47;;;;;;;9.82;84.91;100987.47;4851344;29;20030;-96
2022/12/24 08:09:39;;;;;;;23.05;4.25;;;;;;;9.67;84.88;100964.22;4849575;29;20045;-96
2022/12/24 08:12:07;;;;;;;21.10;5.45;;;;;;;9.72;84.92;100970.22;4849434;29;20035;-95
2022/12/24 08:14:33;;;;;;;23.35;4.75;;;;;;;9.85;84.82;100991.78;4848108;29;20027;-96
2022/12/24 08:16:58;;;;;;;31.52;5.57;;;;;;;9.79;85.11;100965.56;4861522;29;20057;-96
2022/12/24 08:19:25;;;;;;;21.10;4.00;;;;;;;9.77;85.17;100975.34;4846746;29;20090;-96
2022/12/24 08:21:50;;;;;;;23.63;4.30;;;;;;;9.84;84.87;100993.56;4854096;29;20490;-96
2022/12/24 08:24:16;;;;;;;17.77;4.90;;;;;;;9.85;84.59;100986.50;4856069;29;20033;-96
2022/12/24 08:27:00;;;;;;;24.27;5.10;;;;;;;10.01;85.12;101006.16;4855711;29;20103;-96
2022/12/24 08:29:28;;;;;;;26.45;5.53;;;;;;;10.16;84.76;101039.94;4839078;29;20514;-96
2022/12/24 08:32:02;;;;;;;29.30;5.63;;;;;;;10.05;84.48;101020.13;4853412;29;20034;-95
2022/12/24 08:34:28;;;;;;;26.60;5.20;;;;;;;10.05;84.59;101013.06;4857914;29;20038;-95
2022/12/24 08:36:55;;;;;;;26.63;6.30;;;;;;;10.03;84.44;101019.34;4844182;29;20394;-96
2022/12/24 08:39:46;;;;;;;29.08;6.22;;;;;;;10.36;84.30;101057.81;4848533;29;20019;-95
2022/12/24 08:42:11;;;;;;;34.05;5.18;;;;;;;10.14;84.12;101006.59;4850430;29;20034;-95
2022/12/24 08:44:40;;;;;;;23.63;5.75;;;;;;;10.23;83.71;101022.13;4849908;29;20037;-96
2022/12/24 08:47:21;;;;;;;19.02;5.75;;;;;;;10.13;84.20;101011.03;4847996;29;20495;-96
2022/12/24 08:49:46;;;;;;;30.10;5.70;;;;;;;10.33;83.97;101038.53;4835601;29;20038;-95
2022/12/24 08:52:55;;;;;;;27.65;5.13;;;;;;;10.50;83.91;101070.53;4845571;29;20050;-95
2022/12/24 08:55:21;;;;;;;30.13;6.45;;;;;;;10.46;83.89;101050.41;4846373;29;20026;-94
2022/12/24 08:58:07;;;;;;;30.63;7.03;;;;;;;10.30;83.59;101021.00;4849499;29;20025;-96
2022/12/24 09:00:34;;;;;;;36.15;6.38;;;;;;;10.35;83.92;101042.88;4845021;29;20174;-95
2022/12/24 09:03:05;;;;;;;24.67;5.95;;;;;;;10.46;83.63;101060.97;4862306;29;20052;-95
2022/12/24 09:05:52;;;;;;;23.27;6.10;;;;;;;10.78;83.37;101085.38;4864235;29;20041;-96
2022/12/24 09:11:39;;;;;;;28.90;5.82;;;;;;;10.62;82.50;101058.63;4848743;29;20045;-95
2022/12/24 09:14:04;;;;;;;28.85;6.00;;;;;;;10.64;82.68;101072.66;4847271;29;20026;-96
2022/12/24 09:16:30;;;;;;;25.45;5.45;;;;;;;10.82;82.49;101090.50;4847836;29;20022;-95
2022/12/24 09:18:57;;;;;;;32.45;6.15;;;;;;;10.80;81.68;101054.44;4849382;29;20054;-95
2022/12/24 09:21:24;;;;;;;26.80;6.07;;;;;;;11.01;81.88;101111.84;4867154;29;20030;-96
2022/12/24 09:23:49;;;;;;;33.42;6.72;;;;;;;10.57;82.72;101079.09;4864881;29;20037;-95
2022/12/24 09:26:18;;;;;;;26.85;5.70;;;;;;;10.59;83.06;101078.13;4832259;29;20035;-95
2022/12/24 09:28:46;;;;;;;27.67;6.45;;;;;;;10.69;82.74;101089.22;4830999;29;20066;-95
2022/12/24 09:31:29;;;;;;;24.95;6.30;;;;;;;11.16;82.17;101118.31;4843348;29;20029;-95
2022/12/24 09:33:54;;;;;;;31.17;6.32;;;;;;;11.02;81.57;101095.03;4851926;29;20130;-95
2022/12/24 09:36:20;;;;;;;16.05;5.03;;;;;;;11.19;81.89;101118.19;4852669;29;20025;-94
2022/12/24 09:38:47;;;;;;;29.42;6.78;;;;;;;11.28;81.89;101106.38;4851484;29;20030;-96
2022/12/24 09:41:23;;;;;;;32.33;6.32;;;;;;;11.92;80.03;101117.94;4847259;29;20032;-95
2022/12/24 09:43:57;;;;;;;23.55;5.30;;;;;;;11.99;79.13;101118.56;4847168;29;20034;-96
2022/12/24 09:46:29;;;;;;;24.92;4.97;;;;;;;11.82;79.64;101127.19;4846365;29;20036;-96
2022/12/24 09:49:05;;;;;;;35.28;6.43;;;;;;;12.05;79.06;101122.75;4847899;29;20030;-96
2022/12/24 09:51:40;;;;;;;23.63;5.25;;;;;;;12.21;78.60;101151.19;4848449;29;20033;-95
2022/12/24 09:54:14;;;;;;;21.38;5.40;;;;;;;12.08;78.51;101155.28;4847081;29;20049;-95
2022/12/24 09:56:43;;;;;;;27.33;5.55;;;;;;;11.97;78.70;101149.56;4843684;29;20057;-94
2022/12/24 09:59:48;;;;;;;18.85;4.95;;;;;;;11.79;79.94;101169.66;4834075;29;20062;-95
2022/12/24 10:02:17;;;;;;;23.15;5.88;;;;;;;11.52;80.54;101141.63;4806248;29;20418;-94
2022/12/24 10:04:44;;;;;;;33.17;6.45;;;;;;;11.62;79.86;101150.97;4800895;29;20031;-94
2022/12/24 10:07:34;;;;;;;24.35;5.40;;;;;;;11.70;79.98;101172.69;4825793;29;20077;-95
2022/12/24 10:10:27;;;;;;;22.70;6.32;;;;;;;11.95;78.97;101170.81;4842780;29;20034;-96
2022/12/24 10:13:33;;;;;;;28.80;6.07;;;;;;;12.18;78.90;101150.47;4844354;29;20034;-96
2022/12/24 10:16:18;;;;;;;29.23;5.45;;;;;;;12.43;77.73;101152.94;4812734;29;20046;-96
2022/12/24 10:19:01;;;;;;;27.40;5.85;;;;;;;12.29;77.35;101184.47;4860686;29;20054;-96
2022/12/24 10:21:59;;;;;;;31.95;6.57;;;;;;;11.92;78.17;101148.88;4832775;29;20023;-96
2022/12/24 10:24:49;;;;;;;29.02;7.13;;;;;;;11.67;78.55;101126.00;4839086;29;20064;-96
2022/12/24 10:30:56;;;;;;;24.23;6.03;;;;;;;11.61;78.96;101125.38;4843859;29;20046;-96
2022/12/24 10:33:31;;;;;;;30.75;6.97;;;;;;;11.75;79.37;101157.50;4837557;29;20046;-96
2022/12/24 12:36:18;;;;;;;19.38;6.50;;;;;;;13.37;69.88;101224.00;702732;23;20319;-95
2022/12/24 12:38:44;;;;;;;25.55;6.68;;;;;;;13.35;68.90;101181.59;4868201;29;20053;-94
2022/12/24 12:41:19;;;;;;;23.45;7.07;;;;;;;13.46;69.40;101183.72;4871600;29;20040;-94
2022/12/24 12:47:37;;;;;;;28.73;7.63;;;;;;;13.36;69.81;101201.88;4891729;29;20508;-96
2022/12/24 12:54:06;;;;;;;28.55;8.52;;;;;;;13.18;70.33;101231.91;4894887;29;20513;-96
2022/12/24 13:38:49;;;;;;;22.27;8.77;;;;;;;13.47;68.19;101258.03;662800;23;20334;-94
2022/12/24 13:41:39;;;;;;;25.90;8.82;;;;;;;13.72;68.78;101268.41;4868786;29;20053;-95
2022/12/24 13:44:13;;;;;;;26.65;8.93;;;;;;;13.89;68.20;101266.75;4870932;29;20068;-95
2022/12/24 13:47:20;;;;;;;20.88;8.30;;;;;;;13.75;66.67;101264.72;4870832;29;20033;-95
2022/12/24 13:53:43;;;;;;;18.20;7.63;;;;;;;14.03;66.24;101269.59;4886248;29;20056;-96
2022/12/24 13:56:24;;;;;;;17.83;7.30;;;;;;;13.82;66.89;101258.22;4830620;29;20041;-95
2022/12/24 13:58:55;;;;;;;26.23;8.38;;;;;;;13.73;65.81;101232.06;4870873;29;20025;-95
2022/12/24 14:01:33;;;;;;;27.17;9.25;;;;;;;13.36;66.12;101227.59;4869313;29;20474;-95
2022/12/24 14:04:01;;;;;;;24.17;10.05;;;;;;;13.27;66.47;101229.72;4870269;29;20036;-96
2022/12/24 14:06:38;;;;;;;26.63;8.80;;;;;;;13.19;67.70;101250.41;4869372;29;20021;-96
2022/12/24 14:09:11;;;;;;;21.80;8.20;;;;;;;13.29;66.39;101261.53;4872348;29;20037;-96
2022/12/24 17:15:43;;;;;;;29.27;8.50;;;;;;;9.29;82.21;101391.16;537357;23;20549;-95
2022/12/24 17:18:09;;;;;;;28.92;7.40;;;;;;;8.98;82.44;101345.38;4855152;29;20065;-96
2022/12/24 17:20:35;;;;;;;26.45;7.88;;;;;;;9.12;82.42;101344.09;4864237;29;20047;-96
2022/12/24 17:23:00;;;;;;;28.23;7.40;;;;;;;9.12;81.93;101344.09;4859091;29;20030;-96
2022/12/24 17:25:29;;;;;;;21.13;6.72;;;;;;;9.17;82.61;101365.94;4850786;29;20058;-95
2022/12/24 17:27:56;;;;;;;24.75;7.53;;;;;;;9.07;82.36;101353.06;4866167;29;20041;-96
2022/12/24 17:30:28;;;;;;;25.67;7.63;;;;;;;9.03;82.56;101346.13;4872621;29;20041;-95
2022/12/24 17:32:58;;;;;;;;;;;;;;;9.38;81.16;101400.63;4849811;29;20042;-96
2022/12/24 17:35:23;;;;;;;27.08;8.00;;;;;;;9.00;82.42;101349.72;4879102;29;20006;-96
2022/12/24 17:37:54;;;;;;;25.27;7.50;;;;;;;9.27;83.13;101400.00;4881278;29;20025;-96
2022/12/24 17:40:22;;;;;;;31.40;8.02;;;;;;;9.20;82.84;101405.47;4878996;29;20025;-95
2022/12/24 17:42:48;;;;;;;27.77;7.45;;;;;;;8.91;83.05;101358.72;4868993;29;20029;-96
2022/12/24 17:45:14;;;;;;;29.30;7.88;;;;;;;9.17;83.51;101396.75;4862589;29;20029;-96
2022/12/24 17:47:43;;;;;;;31.67;8.77;;;;;;;8.81;83.41;101341.41;4878929;29;20145;-95